createdAt,value
2023-03-13T00:00:13.935Z,1.54
2023-03-13T00:02:47.212Z,1.51
2023-03-13T00:05:17.117Z,1.54
2023-03-13T00:07:50.130Z,1.53
2023-03-13T00:10:20.541Z,1.54
2023-03-13T00:12:49.255Z,1.54
2023-03-13T00:15:54.793Z,1.55
2023-03-13T00:19:14.433Z,1.49
2023-03-13T00:21:50.717Z,1.47
2023-03-13T00:24:28.015Z,1.42
2023-03-13T00:27:03.463Z,1.40
2023-03-13T00:29:34.779Z,1.37
2023-03-13T00:32:07.740Z,1.31
2023-03-13T00:34:38.179Z,1.27
2023-03-13T00:37:07.787Z,1.24
2023-03-13T00:39:39.348Z,1.23
2023-03-13T00:42:07.882Z,1.26
2023-03-13T00:44:37.732Z,1.31
2023-03-13T00:47:07.292Z,1.33
2023-03-13T00:49:36.576Z,1.37
2023-03-13T00:52:05.280Z,1.40
2023-03-13T00:54:33.932Z,1.44
2023-03-13T00:57:02.463Z,1.46
2023-03-13T00:59:31.621Z,1.46
2023-03-13T01:02:04.448Z,1.45
2023-03-13T01:04:35.184Z,1.37
2023-03-13T01:07:04.855Z,1.26
2023-03-13T01:09:33.855Z,1.24
2023-03-13T01:12:04.588Z,1.24
2023-03-13T01:14:35.324Z,1.27
2023-03-13T01:17:10.973Z,1.30
2023-03-13T01:19:42.389Z,1.31
2023-03-13T01:22:16.278Z,1.35
2023-03-13T01:24:50.628Z,1.37
2023-03-13T01:27:20.614Z,1.40
2023-03-13T01:29:49.941Z,1.42
2023-03-13T01:32:18.745Z,1.40
2023-03-13T01:34:49.771Z,1.37
2023-03-13T01:37:19.978Z,1.31
2023-03-13T01:39:52.086Z,1.28
2023-03-13T01:42:22.349Z,1.22
2023-03-13T01:44:54.012Z,1.16
2023-03-13T01:47:23.631Z,1.13
2023-03-13T01:50:06.960Z,1.11
2023-03-13T01:52:56.671Z,1.11
2023-03-13T01:55:33.961Z,1.09
2023-03-13T01:58:03.949Z,1.13
2023-03-13T02:00:34.035Z,1.12
2023-03-13T02:03:09.062Z,1.11
2023-03-13T02:05:40.363Z,1.03
2023-03-13T02:08:13.069Z,1.02
2023-03-13T02:10:50.817Z,1.01
2023-03-13T02:13:22.997Z,0.98
2023-03-13T02:15:51.852Z,0.94
2023-03-13T02:20:38.599Z,0.89
2023-03-13T02:23:22.293Z,0.83
2023-03-13T02:25:53.312Z,0.80
2023-03-13T02:28:33.468Z,0.78
2023-03-13T02:31:01.999Z,0.79
2023-03-13T02:33:36.237Z,0.82
2023-03-13T02:36:09.960Z,0.85
2023-03-13T02:38:51.837Z,0.85
2023-03-13T02:41:19.029Z,0.88
2023-03-13T02:43:46.366Z,0.91
2023-03-13T02:46:18.826Z,0.94
2023-03-13T02:48:54.703Z,0.94
2023-03-13T02:51:25.864Z,0.94
2023-03-13T02:54:34.058Z,0.93
2023-03-13T02:57:03.135Z,0.90
2023-03-13T02:59:32.256Z,0.89
2023-03-13T03:02:00.745Z,0.89
2023-03-13T03:04:29.903Z,0.90
2023-03-13T03:06:58.245Z,0.94
2023-03-13T03:09:26.411Z,0.94
2023-03-13T03:11:58.630Z,1.01
2023-03-13T03:14:32.457Z,1.06
2023-03-13T03:17:12.533Z,1.09
2023-03-13T03:20:32.532Z,1.10
2023-03-13T03:23:03.022Z,1.10
2023-03-13T03:25:36.072Z,1.05
2023-03-13T03:28:07.828Z,1.01
2023-03-13T03:30:39.988Z,0.98
2023-03-13T03:36:27.646Z,0.90
2023-03-13T03:38:56.273Z,0.86
2023-03-13T03:41:26.040Z,0.85
2023-03-13T03:44:00.107Z,0.86
2023-03-13T03:46:34.052Z,0.88
2023-03-13T03:49:12.123Z,0.90
2023-03-13T03:51:40.396Z,0.93
2023-03-13T03:54:08.709Z,0.96
2023-03-13T03:56:36.339Z,0.98
2023-03-13T03:59:09.656Z,0.98
2023-03-13T04:01:44.740Z,0.94
2023-03-13T04:04:12.522Z,0.87
2023-03-13T04:06:42.893Z,0.78
2023-03-13T04:09:10.411Z,0.71
2023-03-13T04:11:40.817Z,0.65
2023-03-13T04:14:18.680Z,0.65
2023-03-13T04:16:46.070Z,0.66
2023-03-13T04:19:16.072Z,0.70
2023-03-13T04:21:44.759Z,0.75
2023-03-13T04:24:18.383Z,0.80
2023-03-13T04:26:47.044Z,0.84
2023-03-13T04:29:15.856Z,0.90
2023-03-13T04:31:59.286Z,0.98
2023-03-13T04:36:05.771Z,1.10
2023-03-13T04:38:56.135Z,1.11
2023-03-13T04:41:41.161Z,1.09
2023-03-13T04:44:12.184Z,1.11
2023-03-13T04:47:06.458Z,1.13
2023-03-13T04:49:40.834Z,1.16
2023-03-13T04:52:30.170Z,1.23
2023-03-13T04:55:23.345Z,1.41
2023-03-13T04:58:14.789Z,1.82
2023-03-13T05:01:01.915Z,2.51
2023-03-13T05:03:52.561Z,3.41
2023-03-13T05:06:40.485Z,4.38
2023-03-13T05:09:36.689Z,5.40
2023-03-13T05:12:10.426Z,6.22
2023-03-13T05:16:18.773Z,6.98
2023-03-13T05:19:22.738Z,7.41
2023-03-13T05:22:09.446Z,7.76
2023-03-13T05:24:57.429Z,8.13
2023-03-13T05:27:45.966Z,8.38
2023-03-13T05:31:48.628Z,8.42
2023-03-13T05:34:50.104Z,8.70
2023-03-13T05:37:51.823Z,8.99
2023-03-13T05:45:20.416Z,9.37
2023-03-13T05:48:14.278Z,9.63
2023-03-13T05:51:02.460Z,10.00
2023-03-13T05:54:01.579Z,10.40
2023-03-13T06:00:26.061Z,11.14
2023-03-13T06:03:18.763Z,11.48
2023-03-13T06:05:52.141Z,11.89
2023-03-13T06:08:47.635Z,12.35
2023-03-13T06:11:21.543Z,12.66
2023-03-13T06:13:59.827Z,12.90
2023-03-13T06:18:13.735Z,13.27
2023-03-13T06:20:42.750Z,13.76
2023-03-13T06:23:13.938Z,14.04
2023-03-13T06:25:55.040Z,14.22
2023-03-13T06:28:45.122Z,14.52
2023-03-13T06:31:12.789Z,14.71
2023-03-13T06:33:43.805Z,14.96
2023-03-13T06:39:53.155Z,15.71
2023-03-13T06:42:20.918Z,15.87
2023-03-13T06:44:57.869Z,16.11
2023-03-13T06:47:27.212Z,16.31
2023-03-13T06:49:55.780Z,16.54
2023-03-13T06:52:42.899Z,16.69
2023-03-13T06:55:12.600Z,16.86
2023-03-13T06:57:41.121Z,17.10
2023-03-13T07:00:17.932Z,17.15
2023-03-13T07:03:09.545Z,17.02
2023-03-13T07:05:59.985Z,16.83
2023-03-13T07:08:34.247Z,16.76
2023-03-13T07:11:29.435Z,17.01
2023-03-13T07:14:15.314Z,17.33
2023-03-13T07:16:46.534Z,17.63
2023-03-13T07:19:21.251Z,17.71
2023-03-13T07:22:03.225Z,17.69
2023-03-13T07:37:46.021Z,17.35
2023-03-13T07:43:41.975Z,17.52
2023-03-13T07:46:25.439Z,17.58
2023-03-13T07:48:58.074Z,17.64
2023-03-13T07:51:42.455Z,17.81
2023-03-13T07:54:19.243Z,17.98
2023-03-13T08:11:27.706Z,18.36
2023-03-13T08:14:19.508Z,18.56
2023-03-13T08:21:43.981Z,19.03
2023-03-13T08:24:20.383Z,19.13
2023-03-13T08:27:14.758Z,19.40
2023-03-13T08:30:30.742Z,19.55
2023-03-13T08:39:50.858Z,19.79
2023-03-13T08:42:55.091Z,19.83
2023-03-13T08:52:45.317Z,19.87
2023-03-13T08:58:06.999Z,19.93
2023-03-13T09:03:37.698Z,19.90
2023-03-13T09:06:11.891Z,19.97
2023-03-13T09:08:46.766Z,20.00
2023-03-13T09:11:50.498Z,20.00
2023-03-13T09:17:45.317Z,20.53
2023-03-13T09:21:03.717Z,20.63
2023-03-13T14:57:29.910Z,8.68
2023-03-13T15:04:05.386Z,8.49
2023-03-13T15:06:48.676Z,8.35
2023-03-13T15:09:50.002Z,8.27
2023-03-13T15:15:58.120Z,8.11
2023-03-13T15:27:11.965Z,7.85
2023-03-13T15:45:33.314Z,7.26
2023-03-13T16:03:51.452Z,6.78
2023-03-13T21:36:50.317Z,2.60
2023-03-13T21:39:39.626Z,2.56
2023-03-13T21:42:28.602Z,2.51
